createdAt,value
2018-01-29T00:01:10.472Z,38.00
2018-01-29T00:03:38.221Z,38.10
2018-01-29T00:06:05.951Z,38.00
2018-01-29T00:08:34.410Z,37.90
2018-01-29T00:11:02.125Z,37.90
2018-01-29T00:13:29.846Z,37.90
2018-01-29T00:15:57.527Z,37.90
2018-01-29T00:18:26.000Z,37.80
2018-01-29T00:20:54.453Z,37.90
2018-01-29T00:23:22.142Z,37.80
2018-01-29T00:25:50.629Z,37.90
2018-01-29T00:28:19.086Z,37.90
2018-01-29T00:30:47.583Z,37.90
2018-01-29T00:33:16.066Z,37.80
2018-01-29T00:35:44.498Z,38.00
2018-01-29T00:38:12.171Z,37.90
2018-01-29T00:40:39.860Z,37.90
2018-01-29T00:43:08.293Z,37.70
2018-01-29T00:45:36.007Z,37.70
2018-01-29T00:48:04.586Z,37.60
2018-01-29T00:50:33.124Z,37.50
2018-01-29T00:53:00.818Z,37.50
2018-01-29T00:55:29.324Z,37.40
2018-01-29T00:57:57.016Z,37.30
2018-01-29T01:00:24.702Z,37.30
2018-01-29T01:02:52.415Z,37.30
2018-01-29T01:05:20.080Z,37.30
2018-01-29T01:07:47.840Z,37.40
2018-01-29T01:10:15.517Z,37.40
2018-01-29T01:12:43.220Z,37.40
2018-01-29T01:15:10.898Z,37.20
2018-01-29T01:17:39.343Z,37.20
2018-01-29T01:20:07.015Z,37.10
2018-01-29T01:22:34.705Z,37.20
2018-01-29T01:25:03.182Z,36.80
2018-01-29T01:27:31.619Z,36.70
2018-01-29T01:29:59.324Z,36.60
2018-01-29T01:32:27.755Z,36.70
2018-01-29T01:34:55.446Z,36.60
2018-01-29T01:37:23.907Z,36.60
2018-01-29T01:39:51.675Z,36.50
2018-01-29T01:42:19.346Z,36.50
2018-01-29T01:44:47.027Z,36.50
2018-01-29T01:47:15.460Z,36.30
2018-01-29T01:49:43.197Z,36.30
2018-01-29T01:52:10.943Z,36.30
2018-01-29T01:54:38.658Z,36.30
2018-01-29T01:57:06.425Z,36.40
2018-01-29T01:59:34.084Z,36.50
2018-01-29T02:02:01.784Z,36.70
2018-01-29T02:04:29.478Z,36.70
2018-01-29T02:06:57.156Z,36.70
2018-01-29T02:09:24.854Z,36.70
2018-01-29T02:11:53.327Z,36.90
2018-01-29T02:14:21.780Z,37.00
2018-01-29T02:16:49.490Z,37.00
2018-01-29T02:19:17.182Z,37.00
2018-01-29T02:21:44.924Z,36.90
2018-01-29T02:24:12.598Z,36.80
2018-01-29T02:26:40.266Z,36.80
2018-01-29T02:29:07.936Z,36.80
2018-01-29T02:31:35.605Z,36.90
2018-01-29T02:34:03.318Z,36.80
2018-01-29T02:36:31.056Z,36.80
2018-01-29T02:38:59.516Z,36.90
2018-01-29T02:41:27.272Z,36.80
2018-01-29T02:43:54.953Z,36.90
2018-01-29T02:46:22.716Z,37.00
2018-01-29T02:48:50.480Z,36.90
2018-01-29T02:51:18.979Z,36.60
2018-01-29T02:53:47.471Z,36.40
2018-01-29T02:56:15.196Z,36.40
2018-01-29T02:58:42.932Z,36.40
2018-01-29T03:01:10.610Z,36.40
2018-01-29T03:03:38.310Z,36.40
2018-01-29T03:06:06.787Z,36.30
2018-01-29T03:08:35.219Z,36.20
2018-01-29T03:11:02.911Z,36.20
2018-01-29T03:13:30.659Z,36.10
2018-01-29T03:15:58.351Z,36.10
2018-01-29T03:18:26.785Z,36.10
2018-01-29T03:20:54.481Z,36.00
2018-01-29T03:23:22.997Z,35.90
2018-01-29T03:25:50.665Z,35.90
2018-01-29T03:28:18.333Z,35.90
2018-01-29T03:30:46.035Z,35.90
2018-01-29T03:33:13.749Z,35.80
2018-01-29T03:35:41.422Z,35.80
2018-01-29T03:38:09.090Z,35.80
2018-01-29T03:40:36.840Z,35.80
2018-01-29T03:43:04.515Z,35.90
2018-01-29T03:45:32.264Z,35.80
2018-01-29T03:47:59.962Z,35.60
2018-01-29T03:50:27.679Z,35.50
2018-01-29T03:52:55.393Z,35.50
2018-01-29T03:55:23.828Z,35.80
2018-01-29T03:57:51.913Z,35.80
2018-01-29T04:00:19.610Z,35.80
2018-01-29T04:02:48.117Z,36.10
2018-01-29T04:05:15.797Z,36.00
2018-01-29T04:07:43.465Z,36.10
2018-01-29T04:10:11.142Z,36.20
2018-01-29T04:12:38.806Z,36.20
2018-01-29T04:15:06.557Z,36.10
2018-01-29T04:17:35.040Z,36.10
2018-01-29T04:20:02.758Z,36.10
2018-01-29T04:22:30.429Z,36.00
2018-01-29T04:24:58.114Z,35.90
2018-01-29T04:27:25.807Z,35.80
2018-01-29T04:29:53.478Z,35.80
2018-01-29T04:32:21.898Z,36.10
2018-01-29T04:34:49.564Z,36.10
2018-01-29T04:37:17.231Z,36.10
2018-01-29T04:39:44.929Z,36.10
2018-01-29T04:42:12.591Z,36.10
2018-01-29T04:44:40.303Z,36.20
2018-01-29T04:47:08.047Z,35.60
2018-01-29T04:49:35.736Z,36.10
2018-01-29T04:52:03.417Z,36.00
2018-01-29T04:54:31.831Z,35.70
2018-01-29T04:57:00.287Z,35.80
2018-01-29T04:59:27.975Z,35.80
2018-01-29T05:01:56.487Z,35.80
2018-01-29T05:04:24.217Z,35.80
2018-01-29T05:06:52.722Z,35.70
2018-01-29T05:09:20.433Z,36.30
2018-01-29T05:11:48.119Z,35.80
2018-01-29T05:14:16.572Z,35.90
2018-01-29T05:16:44.251Z,35.90
2018-01-29T05:19:12.730Z,35.80
2018-01-29T05:21:41.162Z,35.80
2018-01-29T05:24:08.832Z,35.80
2018-01-29T05:26:36.497Z,35.80
2018-01-29T05:29:04.178Z,35.70
2018-01-29T05:31:31.851Z,35.70
2018-01-29T05:34:00.464Z,35.80
2018-01-29T05:36:32.783Z,35.80
2018-01-29T05:39:00.525Z,36.30
2018-01-29T05:41:28.259Z,35.80
2018-01-29T05:43:55.990Z,35.70
2018-01-29T05:46:24.433Z,35.60
2018-01-29T05:48:52.180Z,35.50
2018-01-29T05:51:19.891Z,35.60
2018-01-29T05:53:48.393Z,35.60
2018-01-29T05:56:16.088Z,35.50
2018-01-29T05:58:43.851Z,35.50
2018-01-29T06:01:11.611Z,35.20
2018-01-29T06:03:39.296Z,35.20
2018-01-29T06:06:06.986Z,35.10
2018-01-29T06:08:35.498Z,35.00
2018-01-29T06:11:03.194Z,35.00
2018-01-29T06:13:30.882Z,35.00
2018-01-29T06:15:59.342Z,35.00
2018-01-29T06:18:28.566Z,34.90
2018-01-29T06:20:56.991Z,34.90
2018-01-29T06:23:25.426Z,34.80
2018-01-29T06:25:53.841Z,34.80
2018-01-29T06:28:21.548Z,34.80
2018-01-29T06:30:49.224Z,34.80
2018-01-29T06:33:17.657Z,34.60
2018-01-29T06:35:45.309Z,34.50
2018-01-29T06:38:12.998Z,34.60
2018-01-29T06:40:40.696Z,34.60
2018-01-29T06:43:08.406Z,34.60
2018-01-29T06:45:36.083Z,34.70
2018-01-29T06:48:03.815Z,34.90
2018-01-29T06:50:32.253Z,35.10
2018-01-29T06:53:00.736Z,35.10
2018-01-29T06:55:29.247Z,35.10
2018-01-29T06:57:56.982Z,35.00
2018-01-29T07:00:25.430Z,35.10
2018-01-29T07:02:53.152Z,35.10
2018-01-29T07:05:20.915Z,34.90
2018-01-29T07:07:48.594Z,34.80
2018-01-29T07:10:17.063Z,34.70
2018-01-29T07:12:44.754Z,34.70
2018-01-29T07:15:12.423Z,34.80
2018-01-29T07:17:40.095Z,34.60
2018-01-29T07:20:08.542Z,34.50
2018-01-29T07:22:36.223Z,34.40
2018-01-29T07:25:03.894Z,34.40
2018-01-29T07:27:32.353Z,34.50
2018-01-29T07:30:00.117Z,34.50
2018-01-29T07:32:28.578Z,34.70
2018-01-29T07:34:56.262Z,34.70
2018-01-29T07:37:23.920Z,34.60
2018-01-29T07:39:51.608Z,34.50
2018-01-29T07:42:20.052Z,34.30
2018-01-29T07:44:47.801Z,34.30
2018-01-29T07:47:15.538Z,34.20
2018-01-29T07:49:43.217Z,34.00
2018-01-29T07:52:10.884Z,33.90
2018-01-29T07:54:39.468Z,34.10
2018-01-29T07:57:07.144Z,34.10
2018-01-29T07:59:34.917Z,34.30
2018-01-29T08:02:02.588Z,34.30
2018-01-29T08:04:30.256Z,34.40
2018-01-29T08:06:57.936Z,34.50
2018-01-29T08:09:25.619Z,34.50
2018-01-29T08:11:53.367Z,34.40
2018-01-29T08:14:21.829Z,34.10
2018-01-29T08:16:49.513Z,34.10
2018-01-29T08:19:17.185Z,34.10
2018-01-29T08:21:44.866Z,34.20
2018-01-29T08:24:12.584Z,34.10
2018-01-29T08:26:41.025Z,34.10
2018-01-29T08:29:08.756Z,34.10
2018-01-29T08:31:36.467Z,34.30
2018-01-29T08:34:04.122Z,34.40
2018-01-29T08:36:31.796Z,34.50
2018-01-29T08:39:00.372Z,34.80
2018-01-29T08:41:28.031Z,34.80
2018-01-29T08:43:55.715Z,34.90
2018-01-29T08:46:23.434Z,35.10
2018-01-29T08:48:51.879Z,35.40
2018-01-29T08:51:19.560Z,35.30
2018-01-29T08:53:47.995Z,35.90
2018-01-29T08:56:15.685Z,35.80
2018-01-29T08:58:43.377Z,36.00
2018-01-29T09:01:11.086Z,36.10
2018-01-29T09:03:38.791Z,36.30
2018-01-29T09:06:06.464Z,36.40
2018-01-29T09:08:34.196Z,36.40
2018-01-29T09:11:01.876Z,36.30
2018-01-29T09:13:29.579Z,36.20
2018-01-29T09:15:57.364Z,36.30
2018-01-29T09:18:25.032Z,36.50
2018-01-29T09:20:52.735Z,36.60
2018-01-29T09:23:21.261Z,37.00
2018-01-29T09:25:48.940Z,37.00
2018-01-29T09:28:16.688Z,37.10
2018-01-29T09:30:45.224Z,37.30
2018-01-29T09:33:13.687Z,37.40
2018-01-29T09:35:41.394Z,37.40
2018-01-29T09:38:09.098Z,37.30
2018-01-29T09:40:36.780Z,37.40
2018-01-29T09:43:04.471Z,37.40
2018-01-29T09:45:32.227Z,37.40
2018-01-29T09:48:00.655Z,37.40
2018-01-29T09:50:28.363Z,37.40
2018-01-29T09:52:56.896Z,37.60
2018-01-29T09:55:24.576Z,37.60
2018-01-29T09:57:52.290Z,37.70
2018-01-29T10:00:20.035Z,37.90
2018-01-29T10:02:48.483Z,38.40
2018-01-29T10:05:16.190Z,38.40
2018-01-29T10:07:43.962Z,38.60
2018-01-29T10:10:11.696Z,38.40
2018-01-29T10:12:40.149Z,38.30
2018-01-29T10:15:08.366Z,38.30
2018-01-29T10:17:36.029Z,38.40
2018-01-29T10:20:03.707Z,38.50
2018-01-29T10:22:31.426Z,38.60
2018-01-29T10:24:59.847Z,38.50
2018-01-29T10:27:28.388Z,38.50
2018-01-29T10:29:56.826Z,38.60
2018-01-29T10:32:25.295Z,38.70
2018-01-29T10:34:52.943Z,38.70
2018-01-29T10:37:20.610Z,38.70
2018-01-29T10:39:48.296Z,38.80
2018-01-29T10:42:15.927Z,38.90
2018-01-29T10:44:43.594Z,38.90
2018-01-29T10:47:11.999Z,39.00
2018-01-29T10:49:39.648Z,39.00
2018-01-29T10:52:08.268Z,39.30
2018-01-29T10:54:35.939Z,39.30
2018-01-29T10:57:03.603Z,39.40
2018-01-29T10:59:31.277Z,39.60
2018-01-29T11:02:03.350Z,39.40
2018-01-29T11:04:31.002Z,39.40
2018-01-29T11:06:59.435Z,39.70
2018-01-29T11:09:27.078Z,39.70
2018-01-29T11:11:54.765Z,40.00
2018-01-29T11:14:22.429Z,40.20
2018-01-29T11:16:50.180Z,40.40
2018-01-29T11:19:17.831Z,40.40
2018-01-29T11:21:46.499Z,40.40
2018-01-29T11:24:14.151Z,40.40
2018-01-29T11:26:41.782Z,40.50
2018-01-29T11:29:10.207Z,40.80
2018-01-29T11:31:37.887Z,40.80
2018-01-29T11:34:05.531Z,40.90
2018-01-29T11:36:33.209Z,40.90
2018-01-29T11:39:01.032Z,40.90
2018-01-29T11:41:28.674Z,41.00
2018-01-29T11:43:57.070Z,41.20
2018-01-29T11:46:24.722Z,41.10
2018-01-29T11:48:52.438Z,41.20
2018-01-29T11:51:20.108Z,41.30
2018-01-29T11:53:47.767Z,41.50
2018-01-29T11:56:15.439Z,41.60
2018-01-29T11:58:43.892Z,42.00
2018-01-29T12:01:11.564Z,42.00
2018-01-29T12:03:39.212Z,42.10
2018-01-29T12:06:06.871Z,42.10
2018-01-29T12:08:34.519Z,42.00
2018-01-29T12:11:02.927Z,42.60
2018-01-29T12:13:30.559Z,42.00
2018-01-29T12:15:58.238Z,42.20
2018-01-29T12:18:25.905Z,42.50
2018-01-29T12:20:53.574Z,42.60
2018-01-29T12:23:21.234Z,42.70
2018-01-29T12:25:48.872Z,42.70
2018-01-29T12:28:16.520Z,43.30
2018-01-29T12:30:44.174Z,42.70
2018-01-29T12:33:11.843Z,42.80
2018-01-29T12:35:39.481Z,42.90
2018-01-29T12:38:07.150Z,42.90
2018-01-29T12:40:34.797Z,43.00
2018-01-29T12:43:02.507Z,43.10
2018-01-29T12:45:30.307Z,43.10
2018-01-29T12:47:57.950Z,43.10
2018-01-29T12:50:26.375Z,43.30
2018-01-29T12:52:54.015Z,43.30
2018-01-29T12:55:21.685Z,43.40
2018-01-29T12:57:49.342Z,43.40
2018-01-29T13:00:16.997Z,43.40
2018-01-29T13:02:44.657Z,43.30
2018-01-29T13:05:12.311Z,43.40
2018-01-29T13:07:39.947Z,43.50
2018-01-29T13:10:08.381Z,43.70
2018-01-29T13:12:36.050Z,43.70
2018-01-29T13:15:03.750Z,43.90
2018-01-29T13:17:31.399Z,44.00
2018-01-29T13:19:59.101Z,44.00
2018-01-29T13:22:27.525Z,44.00
2018-01-29T13:24:55.158Z,44.00
2018-01-29T13:27:22.818Z,44.10
2018-01-29T13:29:50.474Z,44.30
2018-01-29T13:32:18.109Z,44.40
2018-01-29T13:34:46.550Z,44.70
2018-01-29T13:37:14.196Z,44.70
2018-01-29T13:39:41.835Z,44.70
2018-01-29T13:42:09.554Z,44.70
2018-01-29T13:44:37.192Z,45.30
2018-01-29T13:47:04.881Z,44.60
2018-01-29T13:49:32.593Z,44.40
2018-01-29T13:52:00.239Z,44.60
2018-01-29T13:54:28.633Z,44.80
2018-01-29T13:56:56.309Z,44.70
2018-01-29T13:59:24.727Z,44.90
2018-01-29T14:01:52.363Z,44.90
2018-01-29T14:04:20.794Z,45.30
2018-01-29T14:06:48.431Z,45.20
2018-01-29T14:09:16.073Z,45.30
2018-01-29T14:11:43.706Z,45.20
2018-01-29T14:14:12.132Z,45.20
2018-01-29T14:16:39.805Z,45.20
2018-01-29T14:19:07.573Z,45.50
2018-01-29T14:21:35.297Z,45.70
2018-01-29T14:24:02.982Z,45.90
2018-01-29T14:26:30.810Z,45.90
2018-01-29T14:28:58.454Z,45.80
2018-01-29T14:31:26.188Z,45.80
2018-01-29T14:33:54.599Z,45.80
2018-01-29T14:36:22.233Z,45.60
2018-01-29T14:38:50.660Z,45.60
2018-01-29T14:41:18.435Z,45.50
2018-01-29T14:43:46.162Z,45.60
2018-01-29T14:46:13.862Z,45.60
2018-01-29T14:48:41.558Z,45.70
2018-01-29T14:51:10.006Z,45.80
2018-01-29T14:53:37.654Z,45.70
2018-01-29T14:56:05.305Z,45.80
2018-01-29T14:58:32.979Z,45.80
2018-01-29T15:01:00.652Z,45.80
2018-01-29T15:03:29.102Z,45.90
2018-01-29T15:05:57.222Z,45.90
2018-01-29T15:08:25.141Z,45.90
2018-01-29T15:10:52.838Z,46.00
2018-01-29T15:13:20.501Z,45.90
2018-01-29T15:15:48.177Z,45.80
2018-01-29T15:18:16.742Z,45.80
2018-01-29T15:20:44.400Z,45.80
2018-01-29T15:23:12.085Z,45.90
2018-01-29T15:25:40.530Z,45.90
2018-01-29T15:28:08.200Z,45.90
2018-01-29T15:30:35.878Z,45.90
2018-01-29T15:33:04.296Z,46.00
2018-01-29T15:35:31.958Z,45.90
2018-01-29T15:37:59.608Z,45.90
2018-01-29T15:40:27.242Z,45.90
2018-01-29T15:42:54.885Z,46.40
2018-01-29T15:45:22.538Z,45.90
2018-01-29T15:47:50.241Z,45.80
2018-01-29T15:50:17.901Z,45.60
2018-01-29T15:52:45.557Z,45.60
2018-01-29T15:55:13.282Z,45.60
2018-01-29T15:57:40.937Z,45.50
2018-01-29T16:00:08.567Z,45.60
2018-01-29T16:02:37.132Z,45.60
2018-01-29T16:05:04.779Z,45.60
2018-01-29T16:07:32.445Z,45.60
2018-01-29T16:10:00.108Z,45.60
2018-01-29T16:12:27.734Z,45.70
2018-01-29T16:14:55.409Z,45.80
2018-01-29T16:17:23.860Z,45.80
2018-01-29T16:19:51.539Z,45.80
2018-01-29T16:22:19.203Z,45.90
2018-01-29T16:24:46.846Z,46.00
2018-01-29T16:27:14.506Z,46.10
2018-01-29T16:29:42.137Z,46.10
2018-01-29T16:32:10.554Z,46.00
2018-01-29T16:34:38.203Z,46.00
2018-01-29T16:37:05.875Z,46.70
2018-01-29T16:39:34.302Z,46.20
2018-01-29T16:42:02.728Z,46.20
2018-01-29T16:44:30.417Z,46.20
2018-01-29T16:46:58.086Z,46.20
2018-01-29T16:49:25.782Z,46.10
2018-01-29T16:51:54.222Z,46.30
2018-01-29T16:54:21.894Z,46.30
2018-01-29T16:56:49.597Z,46.40
2018-01-29T16:59:17.259Z,46.50
2018-01-29T17:01:45.111Z,46.50
2018-01-29T17:04:12.767Z,46.40
2018-01-29T17:06:40.439Z,46.90
2018-01-29T17:09:08.123Z,46.30
2018-01-29T17:11:35.810Z,46.20
2018-01-29T17:14:03.500Z,46.20
2018-01-29T17:16:31.927Z,46.30
2018-01-29T17:18:59.588Z,46.20
2018-01-29T17:21:27.281Z,46.30
2018-01-29T17:23:54.975Z,46.20
2018-01-29T17:26:22.642Z,46.20
2018-01-29T17:28:50.284Z,46.20
2018-01-29T17:31:18.708Z,46.10
2018-01-29T17:33:46.382Z,46.10
2018-01-29T17:36:14.027Z,46.10
2018-01-29T17:38:41.717Z,46.00
2018-01-29T17:41:09.414Z,45.90
2018-01-29T17:43:37.214Z,45.80
2018-01-29T17:46:04.859Z,45.70
2018-01-29T17:48:32.530Z,45.60
2018-01-29T17:51:00.250Z,45.70
2018-01-29T17:53:28.745Z,46.00
2018-01-29T17:55:56.472Z,45.90
2018-01-29T17:58:24.183Z,45.90
2018-01-29T18:00:51.878Z,45.90
2018-01-29T18:03:19.522Z,46.00
2018-01-29T18:05:47.246Z,46.10
2018-01-29T18:08:15.667Z,46.10
2018-01-29T18:10:43.302Z,46.00
2018-01-29T18:13:10.964Z,46.10
2018-01-29T18:15:38.619Z,46.10
2018-01-29T18:18:06.330Z,46.10
2018-01-29T18:20:34.007Z,46.10
2018-01-29T18:23:01.685Z,46.10
2018-01-29T18:25:30.105Z,46.10
2018-01-29T18:27:57.789Z,46.00
2018-01-29T18:30:25.443Z,46.00
2018-01-29T18:32:53.933Z,46.00
2018-01-29T18:35:21.598Z,45.90
2018-01-29T18:37:49.333Z,46.00
2018-01-29T18:40:17.033Z,46.10
2018-01-29T18:42:45.470Z,45.80
2018-01-29T18:45:13.115Z,45.70
2018-01-29T18:47:40.892Z,45.60
2018-01-29T18:50:08.582Z,45.50
2018-01-29T18:52:36.256Z,45.60
2018-01-29T18:55:03.981Z,45.60
2018-01-29T18:57:31.649Z,45.60
2018-01-29T18:59:59.297Z,45.30
2018-01-29T19:02:26.982Z,45.20
2018-01-29T19:04:54.627Z,45.10
2018-01-29T19:07:22.301Z,45.10
2018-01-29T19:09:49.997Z,45.10
2018-01-29T19:12:18.405Z,44.90
2018-01-29T19:14:46.055Z,45.50
2018-01-29T19:17:13.750Z,44.90
2018-01-29T19:19:41.386Z,45.50
2018-01-29T19:22:09.060Z,44.80
2018-01-29T19:24:36.757Z,44.80
2018-01-29T19:27:04.394Z,44.70
2018-01-29T19:29:32.054Z,44.60
2018-01-29T19:31:59.719Z,44.60
2018-01-29T19:34:27.392Z,44.60
2018-01-29T19:36:55.053Z,44.60
2018-01-29T19:39:22.755Z,44.60
2018-01-29T19:41:50.416Z,44.60
2018-01-29T19:44:18.065Z,44.60
2018-01-29T19:46:46.510Z,44.40
2018-01-29T19:49:14.182Z,44.40
2018-01-29T19:51:41.841Z,44.30
2018-01-29T19:54:09.563Z,44.40
2018-01-29T19:56:37.209Z,44.40
2018-01-29T19:59:04.865Z,44.30
2018-01-29T20:01:32.567Z,44.40
2018-01-29T20:04:00.244Z,44.40
2018-01-29T20:06:27.909Z,44.40
2018-01-29T20:08:55.664Z,44.30
2018-01-29T20:11:23.337Z,44.30
2018-01-29T20:13:51.000Z,44.20
2018-01-29T20:16:18.658Z,44.10
2018-01-29T20:18:46.309Z,44.00
2018-01-29T20:21:13.971Z,44.70
2018-01-29T20:23:41.740Z,43.90
2018-01-29T20:26:09.404Z,43.80
2018-01-29T20:28:37.864Z,43.90
2018-01-29T20:31:05.514Z,43.80
2018-01-29T20:33:33.192Z,43.70
2018-01-29T20:36:00.861Z,43.60
2018-01-29T20:38:28.513Z,43.60
2018-01-29T20:40:56.194Z,43.50
2018-01-29T20:43:24.636Z,43.50
2018-01-29T20:45:53.117Z,43.50
2018-01-29T20:48:20.785Z,43.40
2018-01-29T20:50:48.471Z,43.40
2018-01-29T20:53:16.890Z,43.40
2018-01-29T20:55:44.578Z,43.40
2018-01-29T20:58:13.096Z,43.50
2018-01-29T21:00:40.799Z,43.40
2018-01-29T21:03:08.482Z,43.40
2018-01-29T21:05:36.232Z,43.40
2018-01-29T21:08:04.003Z,43.20
2018-01-29T21:10:31.661Z,43.00
2018-01-29T21:12:59.341Z,43.00
2018-01-29T21:15:27.024Z,42.90
2018-01-29T21:17:55.460Z,42.70
2018-01-29T21:20:23.904Z,42.70
2018-01-29T21:22:51.566Z,42.60
2018-01-29T21:25:19.243Z,42.50
2018-01-29T21:27:46.929Z,42.30
2018-01-29T21:30:14.607Z,42.20
2018-01-29T21:32:43.267Z,42.00
2018-01-29T21:35:10.934Z,41.80
2018-01-29T21:37:38.593Z,41.80
2018-01-29T21:40:06.285Z,41.70
2018-01-29T21:42:35.897Z,41.60
2018-01-29T21:45:05.104Z,41.60
2018-01-29T21:47:33.524Z,41.60
2018-01-29T21:50:01.255Z,41.60
2018-01-29T21:52:29.713Z,41.60
2018-01-29T21:54:58.156Z,41.60
2018-01-29T21:57:25.865Z,41.50
2018-01-29T21:59:54.272Z,41.40
2018-01-29T22:02:22.009Z,41.30
2018-01-29T22:04:50.446Z,41.30
2018-01-29T22:07:18.908Z,41.10
2018-01-29T22:09:46.563Z,41.20
2018-01-29T22:12:14.254Z,41.10
2018-01-29T22:14:41.926Z,41.10
2018-01-29T22:17:09.555Z,41.00
2018-01-29T22:19:37.203Z,41.00
2018-01-29T22:22:05.031Z,41.00
2018-01-29T22:24:32.687Z,40.90
2018-01-29T22:27:01.098Z,40.90
2018-01-29T22:29:28.766Z,40.80
2018-01-29T22:31:56.501Z,40.80
2018-01-29T22:34:24.163Z,40.90
2018-01-29T22:36:51.889Z,40.80
2018-01-29T22:39:19.618Z,40.80
2018-01-29T22:41:47.259Z,41.00
2018-01-29T22:44:14.948Z,40.80
2018-01-29T22:46:42.602Z,40.90
2018-01-29T22:49:10.329Z,40.90
2018-01-29T22:51:38.013Z,40.80
2018-01-29T22:54:05.660Z,40.80
2018-01-29T22:56:33.318Z,40.80
2018-01-29T22:59:00.997Z,40.80
2018-01-29T23:01:28.713Z,40.90
2018-01-29T23:03:57.128Z,40.90
2018-01-29T23:06:24.790Z,40.90
2018-01-29T23:08:52.674Z,40.90
2018-01-29T23:11:20.327Z,40.90
2018-01-29T23:13:47.967Z,40.90
2018-01-29T23:16:15.615Z,40.80
2018-01-29T23:18:44.014Z,40.70
2018-01-29T23:21:11.669Z,40.70
2018-01-29T23:23:39.435Z,40.70
2018-01-29T23:26:07.098Z,40.70
2018-01-29T23:28:34.745Z,40.70
2018-01-29T23:31:02.421Z,40.60
2018-01-29T23:33:30.111Z,40.50
2018-01-29T23:35:57.754Z,40.50
2018-01-29T23:38:25.454Z,40.50
2018-01-29T23:40:53.100Z,40.50
2018-01-29T23:43:20.826Z,40.60
2018-01-29T23:45:48.467Z,40.70
2018-01-29T23:48:16.141Z,40.80
2018-01-29T23:50:43.810Z,40.80
2018-01-29T23:53:11.471Z,40.70
2018-01-29T23:55:39.133Z,40.60
2018-01-29T23:58:06.807Z,40.50
